Home > Products > Valid Products > TAF

000
FTUS44 KMOB 242300
TAFMOB
TAF
KMOB 242336Z 2500/2524 32007KT P6SM FEW120 BKN250
     FM251500 01013KT P6SM FEW120 SCT250
     FM252100 36012KT P6SM VCSH OVC120=



000
FTUS44 KMOB 242300
TAFPNS
TAF
KPNS 242336Z 2500/2524 16004KT P6SM SCT130 BKN250
     FM251500 01013KT P6SM VCSH BKN130 BKN250
     FM251800 36011KT 6SM -SHRA OVC100=



000
FTUS44 KMOB 242300
TAFMOB
TAF
KMOB 242336Z 2500/2524 32007KT P6SM FEW120 BKN250
     FM251500 01013KT P6SM FEW120 SCT250
     FM252100 36012KT P6SM VCSH OVC120=



000
FTUS44 KMOB 242300
TAFPNS
TAF
KPNS 242336Z 2500/2524 16004KT P6SM SCT130 BKN250
     FM251500 01013KT P6SM VCSH BKN130 BKN250
     FM251800 36011KT 6SM -SHRA OVC100=



000
FTUS44 KMOB 241700 RRA
TAFMOB
TAF
KMOB 241755Z 2418/2518 33006KT P6SM SCT250
     FM250600 35010KT P6SM SCT250=



000
FTUS44 KMOB 241700 RRA
TAFPNS
TAF
KPNS 241755Z 2418/2518 27008KT P6SM SCT100 BKN250
     FM250600 36014KT P6SM SCT250=



000
FTUS44 KMOB 241700 RRA
TAFPNS
TAF
KPNS 241755Z 2418/2518 27008KT P6SM SCT100 BKN250
     FM250600 36014KT P6SM SCT250=



000
FTUS44 KMOB 241700 RRA
TAFMOB
TAF
KMOB 241755Z 2418/2518 33006KT P6SM SCT250
     FM250600 35010KT P6SM SCT250=



000
FTUS44 KMOB 241300 AAA
TAFPNS
TAF AMD
KPNS 241326Z 2413/2512 26007KT P6SM SCT010 BKN015 BKN025
     FM241800 31010KT P6SM SCT050=



000
FTUS44 KMOB 241300 AAA
TAFPNS
TAF AMD
KPNS 241326Z 2413/2512 26007KT P6SM SCT010 BKN015 BKN025
     FM241800 31010KT P6SM SCT050=



000
FTUS44 KMOB 241300 AAA
TAFMOB
TAF AMD
KMOB 241325Z 2413/2512 25004KT P6SM FEW012 SCT250
     FM241800 31010KT P6SM FEW050=



000
FTUS44 KMOB 241300 AAA
TAFMOB
TAF AMD
KMOB 241325Z 2413/2512 25004KT P6SM FEW012 SCT250
     FM241800 31010KT P6SM FEW050=



000
FTUS44 KMOB 241100
TAFPNS
TAF
KPNS 241128Z 2412/2512 24010KT P6SM BKN007 OVC015
     FM241800 31010KT P6SM SCT050=



000
FTUS44 KMOB 241100
TAFMOB
TAF
KMOB 241128Z 2412/2512 24008KT P6SM OVC010
     FM241500 24008KT P6SM SCT020
     FM241800 31010KT P6SM FEW050=



000
FTUS44 KMOB 241100
TAFMOB
TAF
KMOB 241128Z 2412/2512 24008KT P6SM OVC010
     FM241500 24008KT P6SM SCT020
     FM241800 31010KT P6SM FEW050=



000
FTUS44 KMOB 241100
TAFPNS
TAF
KPNS 241128Z 2412/2512 24010KT P6SM BKN007 OVC015
     FM241800 31010KT P6SM SCT050=



000
FTUS44 KMOB 240500
TAFPNS
TAF
KPNS 240535Z 2406/2506 21007KT P6SM SCT006 BKN010 OVC023
      TEMPO 2406/2410 BKN006 OVC020
     FM241800 29011KT P6SM SCT015 SCT250=



000
FTUS44 KMOB 240500
TAFPNS
TAF
KPNS 240535Z 2406/2506 21007KT P6SM SCT006 BKN010 OVC023
      TEMPO 2406/2410 BKN006 OVC020
     FM241800 29011KT P6SM SCT015 SCT250=



000
FTUS44 KMOB 240500
TAFMOB
TAF
KMOB 240535Z 2406/2506 22009KT P6SM OVC011
      TEMPO 2406/2410 BKN008 OVC017
     FM241600 30010KT P6SM SCT015 SCT250=



000
FTUS44 KMOB 240200 AAB
TAFPNS
TAF AMD
KPNS 240201Z 2402/2424 20008KT P6SM BKN007 BKN014
     FM240500 20010KT 3SM BR BKN005
     FM241600 28011KT P6SM SCT015 SCT250=



000
FTUS44 KMOB 240100 AAB
TAFMOB
TAF AMD
KMOB 240157Z 2402/2424 20014KT P6SM OVC006
     FM240500 19010KT 3SM BR BKN005
     FM241500 28010KT P6SM SCT015 SCT250=



000
FTUS44 KMOB 240100 AAB
TAFMOB
TAF AMD
KMOB 240157Z 2402/2424 20014KT P6SM OVC006
     FM240500 19010KT 3SM BR BKN005
     FM241500 28010KT P6SM SCT015 SCT250=



000
FTUS44 KMOB 240100 AAB
TAFMOB
TAF AMD
KMOB 240157Z 2402/2424 20014KT P6SM OVC006
     FM240500 19010KT 3SM BR BKN005
     FM241500 28010KT P6SM SCT015 SCT250=



000
FTUS44 KMOB 240100 AAB
TAFMOB
TAF AMD
KMOB 240157Z 2402/2424 20014KT P6SM OVC006
     FM240500 19010KT 3SM BR BKN005
     FM241500 28010KT P6SM SCT015 SCT250=



000
FTUS44 KMOB 240100 AAA
TAFPNS
TAF AMD
KPNS 240127Z 2401/2424 21006KT P6SM FEW009 SCT015
     FM240500 20010KT 3SM BR BKN005
     FM241600 28011KT P6SM SCT015 SCT250=



000
FTUS44 KMOB 240100 AAA
TAFPNS
TAF AMD
KPNS 240127Z 2401/2424 21006KT P6SM FEW009 SCT015
     FM240500 20010KT 3SM BR BKN005
     FM241600 28011KT P6SM SCT015 SCT250=



000
FTUS44 KMOB 240100 AAA
TAFMOB
TAF AMD
KMOB 240112Z 2401/2424 19008KT P6SM SCT017
     FM240500 19010KT 3SM BR BKN005
     FM241500 28010KT P6SM SCT015 SCT250=



000
FTUS44 KMOB 240100 AAA
TAFMOB
TAF AMD
KMOB 240112Z 2401/2424 19008KT P6SM SCT017
     FM240500 19010KT 3SM BR BKN005
     FM241500 28010KT P6SM SCT015 SCT250=



000
FTUS44 KMOB 232300
TAFPNS
TAF
KPNS 232326Z 2400/2424 21009KT P6SM FEW110
     FM240500 20010KT 3SM BR BKN005
     FM241600 28011KT P6SM SCT015 SCT250=



000
FTUS44 KMOB 232300
TAFMOB
TAF
KMOB 232326Z 2400/2424 20010KT P6SM SKC
     FM240500 19010KT 3SM BR BKN005
     FM241500 28010KT P6SM SCT015 SCT250=



000
FTUS44 KMOB 232300
TAFPNS
TAF
KPNS 232326Z 2400/2424 21009KT P6SM FEW110
     FM240500 20010KT 3SM BR BKN005
     FM241600 28011KT P6SM SCT015 SCT250=



000
FTUS44 KMOB 232300
TAFMOB
TAF
KMOB 232326Z 2400/2424 20010KT P6SM SKC
     FM240500 19010KT 3SM BR BKN005
     FM241500 28010KT P6SM SCT015 SCT250=



000
FTUS44 KMOB 231700 RRA
TAFPNS
TAF
KPNS 231754Z 2318/2418 27011G28KT P6SM -RA FEW018 BKN060 OVC070
     FM232200 20011G20KT P6SM BKN040
     FM240600 22010KT 3SM BR OVC015
     FM241500 30011KT P6SM OVC250=



000
FTUS44 KMOB 231700 RRA
TAFMOB
TAF
KMOB 231754Z 2318/2418 21014KT P6SM -RA FEW040 BKN080 OVC100
     FM232000 20013G20KT P6SM BKN040
     FM240400 21010KT 3SM BR OVC015
     FM241500 30011KT P6SM OVC250=



000
FTUS44 KMOB 231700 RRA
TAFPNS
TAF
KPNS 231754Z 2318/2418 27011G28KT P6SM -RA FEW018 BKN060 OVC070
     FM232200 20011G20KT P6SM BKN040
     FM240600 22010KT 3SM BR OVC015
     FM241500 30011KT P6SM OVC250=



000
FTUS44 KMOB 231700 RRA
TAFMOB
TAF
KMOB 231754Z 2318/2418 21014KT P6SM -RA FEW040 BKN080 OVC100
     FM232000 20013G20KT P6SM BKN040
     FM240400 21010KT 3SM BR OVC015
     FM241500 30011KT P6SM OVC250=



000
FTUS44 KMOB 231500 AAB
TAFMOB
TAF AMD
KMOB 231527Z 2315/2412 17016G29KT 4SM -TSRA BKN015 OVC025CB
     FM231600 19016G26KT P6SM VCTS OVC015CB
      TEMPO 2317/2320 VRB25G35KT 1SM +TSRA BKN004 OVC015CB
     FM232100 20013G20KT P6SM -RA SCT007 OVC015=



000
FTUS44 KMOB 231500 AAB
TAFMOB
TAF AMD
KMOB 231527Z 2315/2412 17016G29KT 4SM -TSRA BKN015 OVC025CB
     FM231600 19016G26KT P6SM VCTS OVC015CB
      TEMPO 2317/2320 VRB25G35KT 1SM +TSRA BKN004 OVC015CB
     FM232100 20013G20KT P6SM -RA SCT007 OVC015=



000
FTUS44 KMOB 231500 AAA
TAFPNS
TAF AMD
KPNS 231512Z 2315/2412 16015KT P6SM FEW008 BKN019 OVC035
      TEMPO 2315/2318 13015G24KT 4SM -SHRA OVC004
     FM231800 19018G28KT 2SM TSRA BKN004 OVC015CB
      TEMPO 2319/2321 VRB25G35KT 1SM +TSRA BKN004 OVC015CB
     FM232300 20013G20KT P6SM -RA SCT007 OVC015=



000
FTUS44 KMOB 231500 AAA
TAFPNS
TAF AMD
KPNS 231512Z 2315/2412 16015KT P6SM FEW008 BKN019 OVC035
      TEMPO 2315/2318 13015G24KT 4SM -SHRA OVC004
     FM231800 19018G28KT 2SM TSRA BKN004 OVC015CB
      TEMPO 2319/2321 VRB25G35KT 1SM +TSRA BKN004 OVC015CB
     FM232300 20013G20KT P6SM -RA SCT007 OVC015=



000
FTUS44 KMOB 231500 AAA
TAFMOB
TAF AMD
KMOB 231509Z 2315/2412 17018G30KT 6SM BR FEW008 BKN013 OVC019
     FM231600 19016G26KT 2SM TSRA BKN004 OVC015CB
      TEMPO 2316/2318 VRB25G35KT 1SM +TSRA BKN004 OVC015CB
     FM232100 20013G20KT P6SM -RA SCT007 OVC015=



000
FTUS44 KMOB 231500 AAA
TAFMOB
TAF AMD
KMOB 231509Z 2315/2412 17018G30KT 6SM BR FEW008 BKN013 OVC019
     FM231600 19016G26KT 2SM TSRA BKN004 OVC015CB
      TEMPO 2316/2318 VRB25G35KT 1SM +TSRA BKN004 OVC015CB
     FM232100 20013G20KT P6SM -RA SCT007 OVC015=



000
FTUS44 KMOB 231100
TAFMOB
TAF
KMOB 231128Z 2312/2412 10008KT 1 1/2SM -SHRA BR OVC002
     FM231400 13015G24KT 4SM -SHRA OVC004
     FM231600 19016G26KT 2SM TSRA BKN004 OVC015CB
      TEMPO 2316/2318 VRB25G35KT 1SM +TSRA BKN004 OVC015CB
     FM232100 20013G20KT P6SM -RA SCT007 OVC015=



000
FTUS44 KMOB 231100
TAFMOB
TAF
KMOB 231128Z 2312/2412 10008KT 1 1/2SM -SHRA BR OVC002
     FM231400 13015G24KT 4SM -SHRA OVC004
     FM231600 19016G26KT 2SM TSRA BKN004 OVC015CB
      TEMPO 2316/2318 VRB25G35KT 1SM +TSRA BKN004 OVC015CB
     FM232100 20013G20KT P6SM -RA SCT007 OVC015=



000
FTUS44 KMOB 231100
TAFPNS
TAF
KPNS 231128Z 2312/2412 11012G19KT 4SM -SHRA BR OVC002
     FM231400 13015G24KT 4SM -SHRA OVC004
     FM231800 19018G28KT 2SM TSRA BKN004 OVC015CB
      TEMPO 2319/2321 VRB25G35KT 1SM +TSRA BKN004 OVC015CB
     FM232300 20013G20KT P6SM -RA SCT007 OVC015=



000
FTUS44 KMOB 231100
TAFPNS
TAF
KPNS 231128Z 2312/2412 11012G19KT 4SM -SHRA BR OVC002
     FM231400 13015G24KT 4SM -SHRA OVC004
     FM231800 19018G28KT 2SM TSRA BKN004 OVC015CB
      TEMPO 2319/2321 VRB25G35KT 1SM +TSRA BKN004 OVC015CB
     FM232300 20013G20KT P6SM -RA SCT007 OVC015=



000
FTUS44 KMOB 230500
TAFPNS
TAF
KPNS 230535Z 2306/2406 08010KT P6SM BKN006 OVC013
     FM231100 13012G17KT 5SM -SHRA BR OVC007
     FM231400 15015G25KT 4SM TSRA OVC004CB
     FM232100 20015G25KT P6SM VCSH BKN035=



000
FTUS44 KMOB 230500
TAFPNS
TAF
KPNS 230535Z 2306/2406 08010KT P6SM BKN006 OVC013
     FM231100 13012G17KT 5SM -SHRA BR OVC007
     FM231400 15015G25KT 4SM TSRA OVC004CB
     FM232100 20015G25KT P6SM VCSH BKN035=



000
FTUS44 KMOB 230500
TAFMOB
TAF
KMOB 230535Z 2306/2406 09012KT 6SM BR OVC006
     FM231000 10012G17KT 5SM -SHRA BR OVC007
     FM231300 13015G24KT 4SM TSRA OVC004CB
     FM231900 20015G25KT P6SM VCSH BKN025=



000
FTUS44 KMOB 230500
TAFMOB
TAF
KMOB 230535Z 2306/2406 09012KT 6SM BR OVC006
     FM231000 10012G17KT 5SM -SHRA BR OVC007
     FM231300 13015G24KT 4SM TSRA OVC004CB
     FM231900 20015G25KT P6SM VCSH BKN025=



000
FTUS44 KMOB 230200 AAA
TAFPNS
TAF AMD
KPNS 230238Z 2303/2324 04006KT P6SM -RA OVC006
     FM231100 13012G17KT 5SM -SHRA BR OVC007
     FM231300 15015G25KT 4SM TSRA OVC004CB
     FM232000 20015G25KT P6SM VCSH BKN035=



000
FTUS44 KMOB 230200 AAA
TAFPNS
TAF AMD
KPNS 230238Z 2303/2324 04006KT P6SM -RA OVC006
     FM231100 13012G17KT 5SM -SHRA BR OVC007
     FM231300 15015G25KT 4SM TSRA OVC004CB
     FM232000 20015G25KT P6SM VCSH BKN035=



000
FTUS44 KMOB 230200 AAA
TAFMOB
TAF AMD
KMOB 230237Z 2303/2324 08012KT 5SM -RA BR BKN009 OVC016
     FM230900 10012G17KT 5SM -SHRA BR OVC007
     FM231200 13014G24KT 4SM TSRA OVC004CB
     FM231800 20015G25KT P6SM VCSH BKN025=



000
FTUS44 KMOB 230200 AAA
TAFMOB
TAF AMD
KMOB 230237Z 2303/2324 08012KT 5SM -RA BR BKN009 OVC016
     FM230900 10012G17KT 5SM -SHRA BR OVC007
     FM231200 13014G24KT 4SM TSRA OVC004CB
     FM231800 20015G25KT P6SM VCSH BKN025=



000
FTUS44 KMOB 222300
TAFMOB
TAF
KMOB 222330Z 2300/2324 09010KT P6SM OVC013
     FM230300 09010KT P6SM OVC009
     FM230900 10012G17KT 5SM -SHRA BR OVC007
     FM231200 13014G24KT 4SM TSRA OVC004CB
     FM231800 20015G25KT P6SM VCSH BKN025=



000
FTUS44 KMOB 222300
TAFPNS
TAF
KPNS 222330Z 2300/2324 04004KT 6SM -RA BR OVC003
      TEMPO 2300/2303 OVC006
     FM230300 09010KT P6SM OVC005
     FM231100 13012G17KT 5SM -SHRA BR OVC007
     FM231300 15015G25KT 4SM TSRA OVC004CB
     FM232000 20015G25KT P6SM VCSH BKN035=



000
FTUS44 KMOB 222300
TAFMOB
TAF
KMOB 222330Z 2300/2324 09010KT P6SM OVC013
     FM230300 09010KT P6SM OVC009
     FM230900 10012G17KT 5SM -SHRA BR OVC007
     FM231200 13014G24KT 4SM TSRA OVC004CB
     FM231800 20015G25KT P6SM VCSH BKN025=



000
FTUS44 KMOB 222300
TAFPNS
TAF
KPNS 222330Z 2300/2324 04004KT 6SM -RA BR OVC003
      TEMPO 2300/2303 OVC006
     FM230300 09010KT P6SM OVC005
     FM231100 13012G17KT 5SM -SHRA BR OVC007
     FM231300 15015G25KT 4SM TSRA OVC004CB
     FM232000 20015G25KT P6SM VCSH BKN035=



000
FTUS44 KMOB 222200 AAA
TAFPNS
TAF AMD
KPNS 222228Z 2222/2318 06005KT P6SM SCT003 BKN009
      TEMPO 2223/2303 6SM -RA OVC003
     FM230600 07013G17KT 4SM -SHRA BR OVC007
     FM230800 15015G25KT 3SM TSRA OVC004CB=



000
FTUS44 KMOB 222200 AAA
TAFPNS
TAF AMD
KPNS 222228Z 2222/2318 06005KT P6SM SCT003 BKN009
      TEMPO 2223/2303 6SM -RA OVC003
     FM230600 07013G17KT 4SM -SHRA BR OVC007
     FM230800 15015G25KT 3SM TSRA OVC004CB=



000
FTUS44 KMOB 222200 AAA
TAFMOB
TAF AMD
KMOB 222226Z 2222/2318 09007KT P6SM OVC017
     FM230100 09011G16KT P6SM OVC015
     FM230900 08013G17KT 5SM -SHRA BR OVC007
     FM231100 12013G23KT 4SM TSRA OVC004CB=



000
FTUS44 KMOB 222200 AAA
TAFMOB
TAF AMD
KMOB 222226Z 2222/2318 09007KT P6SM OVC017
     FM230100 09011G16KT P6SM OVC015
     FM230900 08013G17KT 5SM -SHRA BR OVC007
     FM231100 12013G23KT 4SM TSRA OVC004CB=



000
FTUS44 KMOB 221700 RRA
TAFMOB
TAF
KMOB 221755Z 2218/2318 11011KT P6SM FEW040 FEW070 SCT230
     FM230100 09011G16KT P6SM OVC015
     FM230900 08013G17KT 5SM -SHRA BR OVC007
     FM231100 12013G23KT 4SM TSRA OVC004CB=



000
FTUS44 KMOB 221700 RRA
TAFMOB
TAF
KMOB 221755Z 2218/2318 11011KT P6SM FEW040 FEW070 SCT230
     FM230100 09011G16KT P6SM OVC015
     FM230900 08013G17KT 5SM -SHRA BR OVC007
     FM231100 12013G23KT 4SM TSRA OVC004CB=



000
FTUS44 KMOB 221700 RRA
TAFPNS
TAF
KPNS 221755Z 2218/2318 12010KT P6SM BKN025 OVC030
     FM222100 09011G17KT P6SM OVC015
     FM230600 07013G17KT 4SM -SHRA BR OVC007
     FM230800 15015G25KT 3SM TSRA OVC004CB=



000
FTUS44 KMOB 221700 RRA
TAFPNS
TAF
KPNS 221755Z 2218/2318 12010KT P6SM BKN025 OVC030
     FM222100 09011G17KT P6SM OVC015
     FM230600 07013G17KT 4SM -SHRA BR OVC007
     FM230800 15015G25KT 3SM TSRA OVC004CB=



000
FTUS44 KMOB 221100
TAFMOB
TAF
KMOB 221139Z 2212/2312 07009KT P6SM SKC
     FM221800 11013G18KT P6SM SCT020 BKN040
     FM230100 09011G16KT P6SM OVC015
     FM230900 08013G17KT 5SM -SHRA BR OVC007=



000
FTUS44 KMOB 221100
TAFPNS
TAF
KPNS 221139Z 2212/2312 04008KT P6SM SKC
     FM221800 10011G17KT P6SM BKN025
     FM222100 09011G17KT P6SM OVC015
     FM230900 07013G17KT 4SM -SHRA BR OVC007=



000
FTUS44 KMOB 221100
TAFPNS
TAF
KPNS 221139Z 2212/2312 04008KT P6SM SKC
     FM221800 10011G17KT P6SM BKN025
     FM222100 09011G17KT P6SM OVC015
     FM230900 07013G17KT 4SM -SHRA BR OVC007=



000
FTUS44 KMOB 221100
TAFMOB
TAF
KMOB 221139Z 2212/2312 07009KT P6SM SKC
     FM221800 11013G18KT P6SM SCT020 BKN040
     FM230100 09011G16KT P6SM OVC015
     FM230900 08013G17KT 5SM -SHRA BR OVC007=



000
FTUS44 KMOB 220500
TAFPNS
TAF
KPNS 220522Z 2206/2306 06003KT P6SM SKC
     FM221200 09011KT P6SM BKN250
     FM221800 09010KT P6SM BKN050
     FM230100 09010KT 5SM BR BKN015=



000
FTUS44 KMOB 220500
TAFPNS
TAF
KPNS 220522Z 2206/2306 06003KT P6SM SKC
     FM221200 09011KT P6SM BKN250
     FM221800 09010KT P6SM BKN050
     FM230100 09010KT 5SM BR BKN015=



000
FTUS44 KMOB 220500
TAFMOB
TAF
KMOB 220522Z 2206/2306 05004KT P6SM SKC
     FM221200 09011KT P6SM BKN250
     FM221800 11010KT P6SM BKN050
     FM230100 09010KT 5SM BR BKN015=



000
FTUS44 KMOB 220500
TAFMOB
TAF
KMOB 220522Z 2206/2306 05004KT P6SM SKC
     FM221200 09011KT P6SM BKN250
     FM221800 11010KT P6SM BKN050
     FM230100 09010KT 5SM BR BKN015=



    US Dept of Commerce
    National Oceanic and Atmospheric Administration
    National Weather Service
    1325 East West Highway
    Silver Spring, MD 20910
    Page Author: NWS Internet Services Team
Disclaimer
Information Quality
Credits
Glossary
Privacy Policy
Freedom of Information Act (FOIA)
About Us
Career Opportunities